createdAt,value
2022-08-15T00:00:34.933Z,100.00
2022-08-15T00:03:09.756Z,100.00
2022-08-15T00:05:42.303Z,100.00
2022-08-15T00:08:49.812Z,100.00
2022-08-15T00:11:19.442Z,100.00
2022-08-15T00:13:59.690Z,100.00
2022-08-15T00:16:38.128Z,100.00
2022-08-15T00:19:14.086Z,100.00
2022-08-15T00:21:49.003Z,100.00
2022-08-15T00:24:29.650Z,100.00
2022-08-15T00:27:01.740Z,100.00
2022-08-15T00:29:37.838Z,100.00
2022-08-15T00:33:01.854Z,100.00
2022-08-15T00:35:30.455Z,100.00
2022-08-15T00:38:11.599Z,100.00
2022-08-15T00:41:10.041Z,100.00
2022-08-15T00:43:48.310Z,100.00
2022-08-15T00:46:21.585Z,100.00
2022-08-15T00:48:52.184Z,100.00
2022-08-15T00:51:29.617Z,100.00
2022-08-15T00:54:10.243Z,100.00
2022-08-15T00:57:10.434Z,100.00
2022-08-15T00:59:55.873Z,100.00
2022-08-15T01:02:35.604Z,100.00
2022-08-15T01:05:16.318Z,100.00
2022-08-15T01:07:46.624Z,100.00
2022-08-15T01:10:20.192Z,100.00
2022-08-15T01:12:54.601Z,100.00
2022-08-15T01:15:28.291Z,100.00
2022-08-15T01:17:57.597Z,100.00
2022-08-15T01:20:31.797Z,100.00
2022-08-15T01:23:24.001Z,100.00
2022-08-15T01:26:41.074Z,100.00
2022-08-15T01:28:59.170Z,100.00
2022-08-15T01:31:27.671Z,100.00
2022-08-15T01:34:00.428Z,100.00
2022-08-15T01:36:33.502Z,100.00
2022-08-15T01:39:23.158Z,100.00
2022-08-15T01:42:22.882Z,100.00
2022-08-15T01:45:05.321Z,100.00
2022-08-15T01:47:53.612Z,100.00
2022-08-15T01:50:44.487Z,100.00
2022-08-15T01:53:41.126Z,100.00
2022-08-15T01:56:35.810Z,100.00
2022-08-15T01:59:15.620Z,100.00
2022-08-15T02:02:01.941Z,100.00
2022-08-15T02:04:37.657Z,100.00
2022-08-15T02:07:21.187Z,100.00
2022-08-15T02:09:54.467Z,100.00
2022-08-15T02:13:04.210Z,100.00
2022-08-15T02:15:24.080Z,100.00
2022-08-15T02:17:57.018Z,100.00
2022-08-15T02:20:27.276Z,100.00
2022-08-15T02:22:57.253Z,100.00
2022-08-15T02:25:26.944Z,100.00
2022-08-15T02:27:56.819Z,100.00
2022-08-15T02:30:30.770Z,100.00
2022-08-15T02:33:05.223Z,100.00
2022-08-15T02:35:36.263Z,100.00
2022-08-15T02:38:11.734Z,100.00
2022-08-15T02:40:52.052Z,100.00
2022-08-15T02:43:22.656Z,100.00
2022-08-15T02:45:57.447Z,100.00
2022-08-15T02:48:57.232Z,100.00
2022-08-15T02:51:53.236Z,100.00
2022-08-15T02:54:37.930Z,100.00
2022-08-15T02:57:16.528Z,100.00
2022-08-15T02:59:48.622Z,100.00
2022-08-15T03:02:29.331Z,100.00
2022-08-15T03:05:04.014Z,100.00
2022-08-15T03:07:37.002Z,100.00
2022-08-15T03:10:06.449Z,100.00
2022-08-15T03:12:58.341Z,100.00
2022-08-15T03:15:57.856Z,100.00
2022-08-15T03:18:35.235Z,100.00
2022-08-15T03:21:13.823Z,100.00
2022-08-15T03:23:50.138Z,100.00
2022-08-15T03:26:25.741Z,100.00
2022-08-15T03:29:06.203Z,100.00
2022-08-15T03:31:41.503Z,100.00
2022-08-15T03:34:28.622Z,100.00
2022-08-15T03:37:01.233Z,100.00
2022-08-15T03:39:31.013Z,100.00
2022-08-15T03:42:00.552Z,100.00
2022-08-15T03:44:32.922Z,100.00
2022-08-15T03:47:02.318Z,100.00
2022-08-15T03:50:23.719Z,100.00
2022-08-15T03:52:32.761Z,100.00
2022-08-15T03:55:15.704Z,100.00
2022-08-15T03:58:02.973Z,100.00
2022-08-15T04:00:52.208Z,100.00
2022-08-15T04:03:30.397Z,100.00
2022-08-15T04:06:14.848Z,100.00
2022-08-15T04:09:04.085Z,100.00
2022-08-15T04:11:35.829Z,100.00
2022-08-15T04:14:31.159Z,100.00
2022-08-15T04:17:12.699Z,100.00
2022-08-15T04:19:49.262Z,100.00
2022-08-15T04:22:53.724Z,100.00
2022-08-15T04:25:54.096Z,100.00
2022-08-15T04:28:53.782Z,100.00
2022-08-15T04:31:22.415Z,100.00
2022-08-15T04:34:00.948Z,100.00
2022-08-15T04:36:34.553Z,100.00
2022-08-15T04:39:04.586Z,100.00
2022-08-15T04:41:39.906Z,100.00
2022-08-15T04:44:19.720Z,100.00
2022-08-15T04:46:58.094Z,100.00
2022-08-15T04:49:26.639Z,100.00
2022-08-15T04:51:56.184Z,100.00
2022-08-15T04:54:26.623Z,100.00
2022-08-15T04:57:25.112Z,100.00
2022-08-15T05:00:05.493Z,100.00
2022-08-15T05:03:14.683Z,100.00
2022-08-15T05:05:55.543Z,100.00
2022-08-15T05:08:30.301Z,100.00
2022-08-15T05:11:16.150Z,100.00
2022-08-15T05:13:48.265Z,100.00
2022-08-15T05:16:33.621Z,100.00
2022-08-15T05:19:06.763Z,100.00
2022-08-15T05:21:43.876Z,100.00
2022-08-15T05:24:29.066Z,100.00
2022-08-15T05:27:03.073Z,100.00
2022-08-15T05:29:33.303Z,100.00
2022-08-15T05:32:02.462Z,100.00
2022-08-15T05:34:42.934Z,100.00
2022-08-15T05:37:16.393Z,100.00
2022-08-15T05:39:48.732Z,100.00
2022-08-15T05:42:44.641Z,100.00
2022-08-15T05:45:38.870Z,100.00
2022-08-15T05:48:34.051Z,100.00
2022-08-15T05:51:53.955Z,100.00
2022-08-15T05:55:12.651Z,100.00
2022-08-15T05:58:36.945Z,100.00
2022-08-15T06:01:28.390Z,100.00
2022-08-15T06:04:34.124Z,100.00
2022-08-15T06:07:17.226Z,100.00
2022-08-15T06:10:02.185Z,100.00
2022-08-15T06:12:43.970Z,100.00
2022-08-15T06:15:17.322Z,100.00
2022-08-15T06:17:58.005Z,100.00
2022-08-15T06:21:15.362Z,100.00
2022-08-15T06:24:26.231Z,100.00
2022-08-15T06:27:40.172Z,100.00
2022-08-15T06:30:20.971Z,100.00
2022-08-15T06:33:04.068Z,100.00
2022-08-15T06:35:48.295Z,100.00
2022-08-15T06:39:02.484Z,100.00
2022-08-15T06:41:57.843Z,100.00
2022-08-15T06:44:44.101Z,100.00
2022-08-15T06:47:15.064Z,100.00
2022-08-15T06:49:56.692Z,100.00
2022-08-15T06:52:26.936Z,100.00
2022-08-15T06:54:55.881Z,100.00
2022-08-15T06:58:05.076Z,100.00
2022-08-15T07:01:01.953Z,100.00
2022-08-15T07:03:49.236Z,100.00
2022-08-15T07:06:36.575Z,100.00
2022-08-15T07:10:03.298Z,100.00
2022-08-15T07:13:03.130Z,100.00
2022-08-15T07:15:55.021Z,100.00
2022-08-15T07:18:50.873Z,100.00
2022-08-15T07:21:52.962Z,100.00
2022-08-15T07:24:34.284Z,100.00
2022-08-15T07:27:07.295Z,100.00
2022-08-15T07:29:56.033Z,100.00
2022-08-15T07:32:52.067Z,100.00
2022-08-15T07:35:34.422Z,100.00
2022-08-15T07:38:25.524Z,100.00
2022-08-15T07:41:19.120Z,100.00
2022-08-15T07:43:54.903Z,100.00
2022-08-15T07:46:38.197Z,100.00
2022-08-15T07:49:30.368Z,100.00
2022-08-15T07:52:43.613Z,100.00
2022-08-15T07:55:37.885Z,100.00
2022-08-15T07:58:26.603Z,100.00
2022-08-15T08:01:33.388Z,100.00
2022-08-15T08:04:23.383Z,100.00
2022-08-15T08:06:58.669Z,100.00
2022-08-15T08:09:44.791Z,100.00
2022-08-15T08:12:56.125Z,100.00
2022-08-15T08:15:44.556Z,100.00
2022-08-15T08:18:28.778Z,100.00
2022-08-15T08:21:08.601Z,100.00
2022-08-15T08:23:56.443Z,100.00
2022-08-15T08:26:25.723Z,100.00
2022-08-15T08:29:23.775Z,100.00
2022-08-15T08:32:30.299Z,100.00
2022-08-15T08:35:34.111Z,100.00
2022-08-15T08:39:04.604Z,100.00
2022-08-15T08:41:56.173Z,100.00
2022-08-15T08:44:44.430Z,100.00
2022-08-15T08:47:42.723Z,100.00
2022-08-15T08:50:44.902Z,100.00
2022-08-15T08:53:33.178Z,100.00
2022-08-15T08:56:33.840Z,100.00
2022-08-15T08:59:29.255Z,100.00
2022-08-15T09:02:29.310Z,100.00
2022-08-15T09:05:08.654Z,100.00
2022-08-15T09:07:42.437Z,100.00
2022-08-15T09:10:13.864Z,100.00
2022-08-15T09:13:17.378Z,100.00
2022-08-15T09:15:54.067Z,100.00
2022-08-15T09:18:49.493Z,100.00
2022-08-15T09:21:18.862Z,100.00
2022-08-15T09:23:48.349Z,100.00
2022-08-15T09:26:53.011Z,100.00
2022-08-15T09:29:57.021Z,100.00
2022-08-15T09:32:38.181Z,100.00
2022-08-15T09:35:24.154Z,100.00
2022-08-15T09:38:43.368Z,100.00
2022-08-15T09:41:54.242Z,100.00
2022-08-15T09:44:40.932Z,100.00
2022-08-15T09:47:58.890Z,100.00
2022-08-15T09:50:33.403Z,100.00
2022-08-15T09:54:03.295Z,100.00
2022-08-15T09:57:12.472Z,100.00
2022-08-15T09:59:45.239Z,100.00
2022-08-15T10:02:38.044Z,100.00
2022-08-15T10:05:37.895Z,100.00
2022-08-15T10:08:09.249Z,100.00
2022-08-15T10:10:52.458Z,100.00
2022-08-15T10:13:47.177Z,100.00
2022-08-15T10:16:43.685Z,99.39
2022-08-15T10:20:00.528Z,84.52
2022-08-15T10:22:43.514Z,86.17
2022-08-15T10:25:23.402Z,94.32
2022-08-15T10:28:35.540Z,96.53
2022-08-15T10:31:06.661Z,96.97
2022-08-15T10:33:36.834Z,100.00
2022-08-15T10:36:20.829Z,100.00
2022-08-15T10:39:23.808Z,100.00
2022-08-15T10:42:38.798Z,100.00
2022-08-15T10:46:22.133Z,100.00
2022-08-15T10:49:01.587Z,100.00
2022-08-15T10:52:08.686Z,100.00
2022-08-15T10:54:56.650Z,100.00
2022-08-15T10:57:33.710Z,100.00
2022-08-15T11:00:13.673Z,100.00
2022-08-15T11:03:10.358Z,100.00
2022-08-15T11:05:41.394Z,100.00
2022-08-15T11:08:19.256Z,100.00
2022-08-15T11:10:49.609Z,100.00
2022-08-15T11:13:24.060Z,100.00
2022-08-15T11:16:00.282Z,100.00
2022-08-15T11:18:58.917Z,100.00
2022-08-15T11:21:52.379Z,100.00
2022-08-15T11:24:34.825Z,100.00
2022-08-15T11:27:23.316Z,100.00
2022-08-15T11:29:59.710Z,100.00
2022-08-15T11:32:54.427Z,100.00
2022-08-15T11:35:37.868Z,100.00
2022-08-15T11:38:20.127Z,100.00
2022-08-15T11:40:55.227Z,100.00
2022-08-15T11:43:25.715Z,100.00
2022-08-15T11:45:57.966Z,100.00
2022-08-15T11:48:39.397Z,100.00
2022-08-15T11:51:31.947Z,100.00
2022-08-15T11:54:13.197Z,100.00
2022-08-15T11:57:34.395Z,100.00
2022-08-15T12:00:25.789Z,100.00
2022-08-15T12:03:04.363Z,100.00
2022-08-15T12:06:08.054Z,100.00
2022-08-15T12:08:35.476Z,100.00
2022-08-15T12:11:15.431Z,100.00
2022-08-15T12:14:00.364Z,99.99
2022-08-15T12:16:51.931Z,100.00
2022-08-15T12:20:26.743Z,100.00
2022-08-15T12:22:44.913Z,100.00
2022-08-15T12:25:51.612Z,96.53
2022-08-15T12:28:34.454Z,92.71
2022-08-15T12:31:37.729Z,87.47
2022-08-15T12:34:28.129Z,91.09
2022-08-15T12:37:50.088Z,94.72
2022-08-15T12:40:53.108Z,100.00
2022-08-15T12:43:07.965Z,94.19
2022-08-15T12:45:38.751Z,96.70
2022-08-15T12:48:36.084Z,94.54
2022-08-15T12:51:06.342Z,100.00
2022-08-15T12:53:43.369Z,100.00
2022-08-15T12:56:31.017Z,100.00
2022-08-15T12:59:02.453Z,100.00
2022-08-15T13:01:37.323Z,100.00
2022-08-15T13:04:53.958Z,100.00
2022-08-15T13:07:14.473Z,100.00
2022-08-15T13:09:45.756Z,100.00
2022-08-15T13:12:18.275Z,100.00
2022-08-15T13:14:48.735Z,100.00
2022-08-15T13:17:47.615Z,100.00
2022-08-15T13:20:28.503Z,100.00
2022-08-15T13:23:15.486Z,100.00
2022-08-15T13:25:47.374Z,100.00
2022-08-15T13:28:16.033Z,100.00
2022-08-15T13:31:01.831Z,100.00
2022-08-15T13:33:35.085Z,100.00
2022-08-15T13:36:30.175Z,100.00
2022-08-15T13:39:11.005Z,100.00
2022-08-15T13:41:48.244Z,100.00
2022-08-15T13:44:31.086Z,100.00
2022-08-15T13:47:09.660Z,100.00
2022-08-15T13:49:42.607Z,100.00
2022-08-15T13:52:45.263Z,100.00
2022-08-15T13:55:01.602Z,100.00
2022-08-15T13:57:30.733Z,100.00
2022-08-15T14:00:00.038Z,100.00
2022-08-15T14:02:37.571Z,100.00
2022-08-15T14:05:17.583Z,100.00
2022-08-15T14:08:23.521Z,100.00
2022-08-15T14:11:00.352Z,100.00
2022-08-15T14:13:25.623Z,100.00
2022-08-15T14:16:08.470Z,100.00
2022-08-15T14:18:53.337Z,100.00
2022-08-15T14:21:27.521Z,100.00
2022-08-15T14:24:00.039Z,100.00
2022-08-15T14:27:08.447Z,100.00
2022-08-15T14:29:48.611Z,100.00
2022-08-15T14:35:11.065Z,100.00
2022-08-15T14:40:39.893Z,100.00
2022-08-15T14:43:18.085Z,100.00
2022-08-15T14:46:33.921Z,100.00
2022-08-15T14:48:47.134Z,100.00
2022-08-15T14:52:23.946Z,100.00
2022-08-15T14:54:40.824Z,100.00
2022-08-15T14:57:25.925Z,100.00
2022-08-15T14:59:59.285Z,100.00
2022-08-15T15:02:38.652Z,100.00
2022-08-15T15:05:10.935Z,100.00
2022-08-15T15:07:59.486Z,100.00
2022-08-15T15:10:30.994Z,100.00
2022-08-15T15:13:07.800Z,100.00
2022-08-15T15:15:42.883Z,100.00
2022-08-15T15:18:38.837Z,100.00
2022-08-15T15:21:16.540Z,100.00
2022-08-15T15:23:51.714Z,100.00
2022-08-15T15:26:36.890Z,100.00
2022-08-15T15:29:07.970Z,100.00
2022-08-15T15:32:01.399Z,100.00
2022-08-15T15:34:33.393Z,100.00
2022-08-15T15:37:04.278Z,100.00
2022-08-15T15:39:46.788Z,100.00
2022-08-15T15:42:17.138Z,100.00
2022-08-15T15:44:49.029Z,100.00
2022-08-15T15:47:25.643Z,100.00
2022-08-15T15:49:56.883Z,100.00
2022-08-15T15:52:30.130Z,100.00
2022-08-15T15:55:04.989Z,100.00
2022-08-15T15:58:00.883Z,100.00
2022-08-15T16:00:37.209Z,100.00
2022-08-15T16:03:09.508Z,100.00
2022-08-15T16:06:03.363Z,100.00
2022-08-15T16:08:46.224Z,100.00
2022-08-15T16:12:14.447Z,100.00
2022-08-15T16:14:39.686Z,100.00
2022-08-15T16:17:20.864Z,100.00
2022-08-15T16:20:29.749Z,100.00
2022-08-15T16:23:11.305Z,100.00
2022-08-15T16:26:17.453Z,100.00
2022-08-15T16:29:29.995Z,100.00
2022-08-15T16:32:14.172Z,100.00
2022-08-15T16:34:59.851Z,100.00
2022-08-15T16:37:42.188Z,100.00
2022-08-15T16:40:58.918Z,100.00
2022-08-15T16:43:54.434Z,100.00
2022-08-15T16:46:56.652Z,100.00
2022-08-15T16:50:17.476Z,100.00
2022-08-15T16:53:09.448Z,100.00
2022-08-15T16:56:10.205Z,100.00
2022-08-15T16:59:15.186Z,100.00
2022-08-15T17:02:00.437Z,100.00
2022-08-15T17:05:21.288Z,100.00
2022-08-15T17:08:17.221Z,100.00
2022-08-15T17:11:09.451Z,100.00
2022-08-15T17:14:03.369Z,100.00
2022-08-15T17:17:15.958Z,100.00
2022-08-15T17:19:54.650Z,100.00
2022-08-15T17:22:54.843Z,100.00
2022-08-15T17:25:41.257Z,100.00
2022-08-15T17:28:36.843Z,100.00
2022-08-15T17:31:14.715Z,100.00
2022-08-15T17:34:40.545Z,100.00
2022-08-15T17:37:05.430Z,100.00
2022-08-15T17:39:53.322Z,100.00
2022-08-15T17:42:33.001Z,100.00
2022-08-15T17:45:38.641Z,100.00
2022-08-15T17:48:30.875Z,100.00
2022-08-15T17:51:32.780Z,100.00
2022-08-15T17:54:51.559Z,100.00
2022-08-15T17:57:25.257Z,100.00
2022-08-15T18:00:31.457Z,100.00
2022-08-15T18:03:05.391Z,100.00
2022-08-15T18:05:36.125Z,100.00
2022-08-15T18:08:11.798Z,100.00
2022-08-15T18:10:52.887Z,100.00
2022-08-15T18:13:29.903Z,100.00
2022-08-15T18:16:18.482Z,100.00
2022-08-15T18:19:14.392Z,100.00
2022-08-15T18:21:54.837Z,100.00
2022-08-15T18:24:51.940Z,100.00
2022-08-15T18:27:56.228Z,100.00
2022-08-15T18:30:28.609Z,100.00
2022-08-15T18:33:17.920Z,100.00
2022-08-15T18:35:55.861Z,100.00
2022-08-15T18:38:30.927Z,100.00
2022-08-15T18:41:16.131Z,100.00
2022-08-15T18:44:00.988Z,100.00
2022-08-15T18:46:53.154Z,100.00
2022-08-15T18:49:23.075Z,100.00
2022-08-15T18:52:23.615Z,100.00
2022-08-15T18:55:05.415Z,100.00
2022-08-15T18:57:52.485Z,100.00
2022-08-15T19:00:33.079Z,100.00
2022-08-15T19:03:07.569Z,100.00
2022-08-15T19:05:44.086Z,100.00
2022-08-15T19:08:38.888Z,100.00
2022-08-15T19:11:42.442Z,100.00
2022-08-15T19:14:33.514Z,100.00
2022-08-15T19:17:31.736Z,100.00
2022-08-15T19:20:26.779Z,100.00
2022-08-15T19:23:01.711Z,100.00
2022-08-15T19:25:49.212Z,100.00
2022-08-15T19:28:44.363Z,100.00
2022-08-15T19:31:53.053Z,100.00
2022-08-15T19:35:01.484Z,100.00
2022-08-15T19:37:42.113Z,100.00
2022-08-15T19:40:36.484Z,100.00
2022-08-15T19:43:33.305Z,100.00
2022-08-15T19:46:34.926Z,100.00
2022-08-15T19:50:05.971Z,100.00
2022-08-15T19:52:59.162Z,100.00
2022-08-15T19:55:45.906Z,100.00
2022-08-15T19:59:07.042Z,100.00
2022-08-15T20:01:52.947Z,100.00
2022-08-15T20:04:48.937Z,100.00
2022-08-15T20:07:39.118Z,100.00
2022-08-15T20:10:43.480Z,100.00
2022-08-15T20:14:02.394Z,100.00
2022-08-15T20:17:17.532Z,100.00
2022-08-15T20:20:26.169Z,100.00
2022-08-15T20:23:41.614Z,100.00
2022-08-15T20:26:30.725Z,100.00
2022-08-15T20:29:33.487Z,100.00
2022-08-15T20:32:23.347Z,100.00
2022-08-15T20:35:56.585Z,100.00
2022-08-15T20:38:53.397Z,100.00
2022-08-15T20:41:51.936Z,100.00
2022-08-15T20:44:47.097Z,100.00
2022-08-15T20:47:44.695Z,100.00
2022-08-15T20:50:21.797Z,100.00
2022-08-15T20:52:58.833Z,100.00
2022-08-15T20:55:48.833Z,100.00
2022-08-15T20:58:21.162Z,100.00
2022-08-15T21:01:33.737Z,100.00
2022-08-15T21:04:29.230Z,100.00
2022-08-15T21:07:02.215Z,100.00
2022-08-15T21:10:03.141Z,100.00
2022-08-15T21:13:01.790Z,100.00
2022-08-15T21:16:31.843Z,100.00
2022-08-15T21:19:35.508Z,100.00
2022-08-15T21:22:36.902Z,100.00
2022-08-15T21:25:06.515Z,100.00
2022-08-15T21:27:41.564Z,100.00
2022-08-15T21:31:00.078Z,100.00
2022-08-15T21:33:44.211Z,100.00
2022-08-15T21:36:22.236Z,100.00
2022-08-15T21:39:12.217Z,100.00
2022-08-15T21:41:56.641Z,100.00
2022-08-15T21:45:03.225Z,100.00
2022-08-15T21:47:47.937Z,100.00
2022-08-15T21:50:41.985Z,100.00
2022-08-15T21:53:37.966Z,100.00
2022-08-15T21:56:26.803Z,100.00
2022-08-15T21:59:15.272Z,100.00
2022-08-15T22:01:58.833Z,100.00
2022-08-15T22:04:43.510Z,100.00
2022-08-15T22:07:15.351Z,100.00
2022-08-15T22:10:16.496Z,100.00
2022-08-15T22:12:37.878Z,100.00
2022-08-15T22:15:12.365Z,100.00
2022-08-15T22:17:44.768Z,100.00
2022-08-15T22:20:32.571Z,100.00
2022-08-15T22:23:05.024Z,100.00
2022-08-15T22:25:43.928Z,100.00
2022-08-15T22:28:51.251Z,100.00
2022-08-15T22:31:15.529Z,100.00
2022-08-15T22:33:45.106Z,100.00
2022-08-15T22:36:17.271Z,100.00
2022-08-15T22:38:47.016Z,100.00
2022-08-15T22:41:27.944Z,100.00
2022-08-15T22:44:03.645Z,100.00
2022-08-15T22:46:41.712Z,100.00
2022-08-15T22:49:11.099Z,100.00
2022-08-15T22:51:51.013Z,100.00
2022-08-15T22:54:22.540Z,100.00
2022-08-15T22:57:08.355Z,100.00
2022-08-15T22:59:56.230Z,100.00
2022-08-15T23:02:32.136Z,100.00
2022-08-15T23:05:34.685Z,100.00
2022-08-15T23:08:14.334Z,100.00
2022-08-15T23:11:17.480Z,100.00
2022-08-15T23:13:59.133Z,100.00
2022-08-15T23:16:52.322Z,100.00
2022-08-15T23:19:30.030Z,100.00
2022-08-15T23:22:04.140Z,100.00
2022-08-15T23:24:52.999Z,100.00
2022-08-15T23:27:31.493Z,100.00
2022-08-15T23:30:00.219Z,100.00
2022-08-15T23:32:49.829Z,100.00
2022-08-15T23:35:22.225Z,100.00
2022-08-15T23:37:55.193Z,100.00
2022-08-15T23:40:36.502Z,100.00
2022-08-15T23:43:18.924Z,100.00
2022-08-15T23:45:47.236Z,100.00
2022-08-15T23:48:29.452Z,100.00
2022-08-15T23:51:05.661Z,100.00
2022-08-15T23:53:36.417Z,100.00
2022-08-15T23:56:35.294Z,100.00
2022-08-15T23:58:57.595Z,100.00
